Observation data for Turkey on 05/24/2020      Previous  Date  Next       Current Mesonet Observations  Soil Data  Daily Summary Page  Observations in Plain Language
KTUR 240500Z 18010KT 20/13 A2978 RMK A01 T01960126  RH  065%=      5-min Rain = 0
KTUR 240505Z 17010KT 20/13 A2978 RMK A01 T01950126  RH  066%=      5-min Rain = 0
KTUR 240510Z 18009KT 19/13 A2978 RMK A01 T01930127  RH  067%=      5-min Rain = 0
KTUR 240515Z 18009KT 19/13 A2978 RMK A01 T01920128  RH  068%=      5-min Rain = 0
KTUR 240520Z 19009KT 19/13 A2978 RMK A01 T01900128  RH  069%=      5-min Rain = 0
KTUR 240525Z 18009KT 19/13 A2979 RMK A01 T01900128  RH  069%=      5-min Rain = 0
KTUR 240530Z 18009KT 19/13 A2979 RMK A01 T01900128  RH  069%=      5-min Rain = 0
KTUR 240535Z 19009KT 19/13 A2979 RMK A01 T01900128  RH  069%=      5-min Rain = 0
KTUR 240540Z 18008KT 19/13 A2979 RMK A01 T01900128  RH  069%=      5-min Rain = 0
KTUR 240545Z 18008KT 19/13 A2979 RMK A01 T01890127  RH  068%=      5-min Rain = 0
KTUR 240550Z 18008KT 19/13 A2979 RMK A01 T01890127  RH  069%=      5-min Rain = 0
KTUR 240555Z 17009KT 19/13 A2979 RMK A01 T01900126  RH  068%=      5-min Rain = 0
KTUR 240600Z 17008KT 19/13 A298 RMK A01 T01910125  RH  067%=      5-min Rain = 0
KTUR 240605Z 16008KT 19/13 A298 RMK A01 T01910125  RH  067%=      5-min Rain = 0
KTUR 240610Z 16008KT 19/12 A2981 RMK A01 T01930123  RH  065%=      5-min Rain = 0
KTUR 240615Z 16008KT 19/12 A2981 RMK A01 T01920124  RH  066%=      5-min Rain = 0
KTUR 240620Z 16008KT 19/12 A2981 RMK A01 T01920123  RH  066%=      5-min Rain = 0
KTUR 240625Z 15008KT 19/12 A2981 RMK A01 T01920122  RH  065%=      5-min Rain = 0
KTUR 240630Z 15008KT 19/12 A2981 RMK A01 T01910122  RH  065%=      5-min Rain = 0
KTUR 240635Z 15008KT 19/12 A2982 RMK A01 T01890123  RH  066%=      5-min Rain = 0
KTUR 240640Z 15008KT 19/12 A2982 RMK A01 T01880122  RH  067%=      5-min Rain = 0
KTUR 240645Z 15008KT 19/12 A2981 RMK A01 T01880122  RH  066%=      5-min Rain = 0
KTUR 240650Z 15009KT 19/12 A2981 RMK A01 T01890121  RH  066%=      5-min Rain = 0
KTUR 240655Z 15010KT 19/12 A2982 RMK A01 T01900121  RH  065%=      5-min Rain = 0
KTUR 240700Z 15009KT 19/12 A2982 RMK A01 T01900120  RH  065%=      5-min Rain = 0
KTUR 240705Z 15010KT 19/12 A2982 RMK A01 T01900120  RH  065%=      5-min Rain = 0
KTUR 240710Z 15010KT 19/12 A2982 RMK A01 T01910119  RH  064%=      5-min Rain = 0
KTUR 240715Z 15010KT 19/12 A2983 RMK A01 T01920118  RH  064%=      5-min Rain = 0
KTUR 240720Z 14010KT 19/12 A2983 RMK A01 T01930118  RH  063%=      5-min Rain = 0
KTUR 240725Z 14011KT 19/12 A2983 RMK A01 T01930118  RH  063%=      5-min Rain = 0
KTUR 240730Z 15012KT 19/12 A2983 RMK A01 T01930118  RH  063%=      5-min Rain = 0
KTUR 240735Z 15012KT 20/12 A2983 RMK A01 T01950117  RH  062%=      5-min Rain = 0
KTUR 240740Z 15011KT 20/12 A2983 RMK A01 T01950117  RH  062%=      5-min Rain = 0
KTUR 240745Z 15010KT 19/12 A2982 RMK A01 T01920117  RH  063%=      5-min Rain = 0
KTUR 240750Z 15009KT 19/12 A2982 RMK A01 T01910117  RH  063%=      5-min Rain = 0
KTUR 240755Z 14008KT 19/12 A2982 RMK A01 T01900117  RH  064%=      5-min Rain = 0
KTUR 240800Z 14009KT 19/12 A2982 RMK A01 T01900117  RH  063%=      5-min Rain = 0
KTUR 240805Z 15008KT 19/12 A2982 RMK A01 T01890117  RH  064%=      5-min Rain = 0
KTUR 240810Z 15008KT 19/12 A2982 RMK A01 T01890116  RH  064%=      5-min Rain = 0
KTUR 240815Z 15007KT 19/12 A2982 RMK A01 T01880116  RH  064%=      5-min Rain = 0
KTUR 240820Z 15007KT 19/12 A2982 RMK A01 T01880116  RH  064%=      5-min Rain = 0
KTUR 240825Z 17007KT 19/12 A2982 RMK A01 T01860117  RH  066%=      5-min Rain = 0
KTUR 240830Z 16007KT 18/12 A2982 RMK A01 T01840118  RH  066%=      5-min Rain = 0
KTUR 240835Z 17007KT 18/12 A2982 RMK A01 T01830118  RH  067%=      5-min Rain = 0
KTUR 240840Z 17009KT 18/12 A2982 RMK A01 T01840117  RH  066%=      5-min Rain = 0
KTUR 240845Z 17009KT 19/12 A2982 RMK A01 T01850117  RH  066%=      5-min Rain = 0
KTUR 240850Z 17007KT 18/12 A2982 RMK A01 T01830117  RH  066%=      5-min Rain = 0
KTUR 240855Z 17006KT 18/12 A2982 RMK A01 T01830117  RH  067%=      5-min Rain = 0
KTUR 240900Z 16009KT 18/12 A2983 RMK A01 T01820116  RH  067%=      5-min Rain = 0
KTUR 240905Z 16009KT 19/12 A2983 RMK A01 T01850115  RH  065%=      5-min Rain = 0
KTUR 240910Z 16008KT 19/12 A2983 RMK A01 T01860115  RH  065%=      5-min Rain = 0
KTUR 240915Z 16007KT 19/12 A2983 RMK A01 T01860115  RH  065%=      5-min Rain = 0
KTUR 240920Z 16007KT 19/12 A2983 RMK A01 T01850115  RH  065%=      5-min Rain = 0
KTUR 240925Z 15007KT 18/12 A2983 RMK A01 T01840115  RH  065%=      5-min Rain = 0
KTUR 240930Z 15007KT 18/12 A2983 RMK A01 T01840115  RH  065%=      5-min Rain = 0
KTUR 240935Z 15007KT 18/12 A2983 RMK A01 T01820116  RH  067%=      5-min Rain = 0
KTUR 240940Z 14006KT 18/12 A2982 RMK A01 T01800117  RH  068%=      5-min Rain = 0
KTUR 240945Z 15006KT 18/12 A2982 RMK A01 T01790117  RH  068%=      5-min Rain = 0
KTUR 240950Z 15007KT 18/12 A2982 RMK A01 T01780117  RH  069%=      5-min Rain = 0
KTUR 240955Z 15007KT 18/12 A2982 RMK A01 T01770118  RH  069%=      5-min Rain = 0
KTUR 241000Z 15007KT 18/12 A2982 RMK A01 T01770117  RH  069%=      5-min Rain = 0
KTUR 241005Z 15007KT 18/12 A2982 RMK A01 T01760118  RH  070%=      5-min Rain = 0
KTUR 241010Z 15006KT 18/12 A2982 RMK A01 T01750118  RH  071%=      5-min Rain = 0
KTUR 241015Z 14006KT 17/12 A2982 RMK A01 T01730119  RH  072%=      5-min Rain = 0
KTUR 241020Z 14006KT 17/12 A2982 RMK A01 T01730119  RH  072%=      5-min Rain = 0
KTUR 241025Z 14006KT 17/12 A2982 RMK A01 T01720119  RH  072%=      5-min Rain = 0
KTUR 241030Z 15006KT 17/12 A2982 RMK A01 T01710120  RH  073%=      5-min Rain = 0
KTUR 241035Z 16006KT 17/12 A2982 RMK A01 T01700120  RH  074%=      5-min Rain = 0
KTUR 241040Z 17007KT 17/12 A2982 RMK A01 T01700120  RH  074%=      5-min Rain = 0
KTUR 241045Z 17008KT 17/12 A2982 RMK A01 T01690120  RH  074%=      5-min Rain = 0
KTUR 241050Z 17009KT 17/12 A2982 RMK A01 T01700119  RH  073%=      5-min Rain = 0
KTUR 241055Z 18009KT 17/12 A2982 RMK A01 T01700119  RH  073%=      5-min Rain = 0
KTUR 241100Z 17010KT 17/12 A2982 RMK A01 T01690119  RH  074%=      5-min Rain = 0
KTUR 241105Z 17010KT 17/12 A2982 RMK A01 T01690119  RH  073%=      5-min Rain = 0
KTUR 241110Z 17010KT 17/12 A2982 RMK A01 T01700118  RH  073%=      5-min Rain = 0
KTUR 241115Z 17009KT 17/12 A2982 RMK A01 T01690118  RH  073%=      5-min Rain = 0
KTUR 241120Z 18010KT 17/12 A2982 RMK A01 T01680118  RH  074%=      5-min Rain = 0
KTUR 241125Z 18009KT 17/12 A2982 RMK A01 T01670118  RH  074%=      5-min Rain = 0
KTUR 241130Z 18009KT 17/12 A2982 RMK A01 T01670119  RH  075%=      5-min Rain = 0
KTUR 241135Z 18009KT 17/12 A2982 RMK A01 T01670119  RH  075%=      5-min Rain = 0
KTUR 241140Z 17009KT 17/12 A2982 RMK A01 T01670119  RH  075%=      5-min Rain = 0
KTUR 241145Z 17008KT 17/12 A2981 RMK A01 T01660119  RH  075%=      5-min Rain = 0
KTUR 241150Z 17008KT 17/12 A2981 RMK A01 T01650119  RH  076%=      5-min Rain = 0
KTUR 241155Z 17007KT 17/12 A2982 RMK A01 T01650120  RH  076%=      5-min Rain = 0
KTUR 241200Z 18007KT 16/12 A2982 RMK A01 T01640120  RH  076%=      5-min Rain = 0
KTUR 241205Z 18007KT 16/12 A2982 RMK A01 T01620120  RH  077%=      5-min Rain = 0
KTUR 241210Z 17008KT 16/12 A2982 RMK A01 T01590119  RH  079%=      5-min Rain = 0
KTUR 241215Z 17008KT 16/12 A2982 RMK A01 T01600120  RH  078%=      5-min Rain = 0
KTUR 241220Z 18007KT 16/12 A2982 RMK A01 T01620120  RH  077%=      5-min Rain = 0
KTUR 241225Z 18007KT 16/12 A2982 RMK A01 T01620120  RH  078%=      5-min Rain = 0
KTUR 241230Z 17007KT 16/12 A2982 RMK A01 T01620120  RH  078%=      5-min Rain = 0
KTUR 241235Z 17007KT 17/12 A2982 RMK A01 T01660122  RH  076%=      5-min Rain = 0
KTUR 241240Z 17006KT 17/12 A2983 RMK A01 T01710123  RH  075%=      5-min Rain = 0
KTUR 241245Z 16008KT 18/12 A2983 RMK A01 T01760124  RH  073%=      5-min Rain = 0
KTUR 241250Z 16008KT 18/13 A2983 RMK A01 T01810125  RH  071%=      5-min Rain = 0
KTUR 241255Z 16008KT 18/13 A2983 RMK A01 T01840125  RH  070%=      5-min Rain = 0
KTUR 241300Z 16007KT 19/13 A2983 RMK A01 T01870125  RH  069%=      5-min Rain = 0
KTUR 241305Z 15008KT 19/13 A2983 RMK A01 T01890125  RH  067%=      5-min Rain = 0
KTUR 241310Z 16007KT 19/13 A2982 RMK A01 T01920125  RH  066%=      5-min Rain = 0
KTUR 241315Z 16007KT 19/13 A2983 RMK A01 T01940125  RH  065%=      5-min Rain = 0
KTUR 241320Z 16009KT 19/12 A2982 RMK A01 T01940124  RH  065%=      5-min Rain = 0
KTUR 241325Z 15008KT 20/13 A2982 RMK A01 T01970125  RH  064%=      5-min Rain = 0
KTUR 241330Z 15008KT 20/13 A2982 RMK A01 T02000125  RH  063%=      5-min Rain = 0
KTUR 241335Z 15009KT 20/13 A2982 RMK A01 T02020125  RH  062%=      5-min Rain = 0
KTUR 241340Z 15008KT 21/13 A2982 RMK A01 T02060126  RH  061%=      5-min Rain = 0
KTUR 241345Z 15008KT 21/13 A2982 RMK A01 T02100128  RH  061%=      5-min Rain = 0
KTUR 241350Z 15010KT 21/13 A2982 RMK A01 T02140128  RH  059%=      5-min Rain = 0
KTUR 241355Z 15011KT 22/13 A2982 RMK A01 T02180128  RH  058%=      5-min Rain = 0
KTUR 241400Z 15012KT 22/13 A2982 RMK A01 T02200128  RH  057%=      5-min Rain = 0
KTUR 241405Z 16011KT 23/13 A2982 RMK A01 T02250129  RH  056%=      5-min Rain = 0
KTUR 241410Z 17011KT 23/13 A2982 RMK A01 T02310131  RH  054%=      5-min Rain = 0
KTUR 241415Z 17013KT 24/13 A2983 RMK A01 T02390130  RH  051%=      5-min Rain = 0
KTUR 241420Z 17014G22KT 24/13 A2982 RMK A01 T02430132  RH  051%=      5-min Rain = 0
KTUR 241425Z 16018G23KT 25/14 A2982 RMK A01 T02470135  RH  051%=      5-min Rain = 0
KTUR 241430Z 17018G24KT 25/14 A2982 RMK A01 T02470137  RH  051%=      5-min Rain = 0
KTUR 241435Z 17018G24KT 25/14 A2982 RMK A01 T02510139  RH  051%=      5-min Rain = 0
KTUR 241440Z 17020G28KT 25/14 A2982 RMK A01 T02510142  RH  052%=      5-min Rain = 0
KTUR 241445Z 16020G26KT 25/14 A2982 RMK A01 T02540144  RH  052%=      5-min Rain = 0
KTUR 241450Z 17022G31KT 25/15 A2982 RMK A01 T02530146  RH  053%=      5-min Rain = 0
KTUR 241455Z 17021G26KT 26/15 A2981 RMK A01 T02550149  RH  053%=      5-min Rain = 0
KTUR 241500Z 16023G29KT 26/15 A2981 RMK A01 T02570151  RH  053%=      5-min Rain = 0
KTUR 241505Z 17022G28KT 26/15 A2981 RMK A01 T02560152  RH  054%=      5-min Rain = 0
KTUR 241510Z 17023G29KT 26/15 A2981 RMK A01 T02570153  RH  054%=      5-min Rain = 0
KTUR 241515Z 17023G30KT 26/15 A2981 RMK A01 T02580154  RH  054%=      5-min Rain = 0
KTUR 241520Z 17021G27KT 26/16 A2981 RMK A01 T02610155  RH  053%=      5-min Rain = 0
KTUR 241525Z 17020G27KT 26/16 A2981 RMK A01 T02620155  RH  053%=      5-min Rain = 0
KTUR 241530Z 17021G26KT 26/16 A298 RMK A01 T02610155  RH  053%=      5-min Rain = 0
KTUR 241535Z 16019G26KT 26/16 A298 RMK A01 T02640155  RH  052%=      5-min Rain = 0
KTUR 241540Z 16020G27KT 27/16 A298 RMK A01 T02670155  RH  051%=      5-min Rain = 0
KTUR 241545Z 17019G27KT 27/16 A298 RMK A01 T02660155  RH  052%=      5-min Rain = 0
KTUR 241550Z 17019G25KT 26/15 A298 RMK A01 T02640154  RH  052%=      5-min Rain = 0
KTUR 241555Z 18019KT 27/15 A298 RMK A01 T02650154  RH  052%=      5-min Rain = 0
KTUR 241600Z 17018G23KT 27/16 A298 RMK A01 T02660155  RH  052%=      5-min Rain = 0
KTUR 241605Z 17019G24KT 27/16 A298 RMK A01 T02670155  RH  051%=      5-min Rain = 0
KTUR 241610Z 17018KT 27/16 A298 RMK A01 T02680155  RH  051%=      5-min Rain = 0
KTUR 241615Z 18017G22KT 27/16 A298 RMK A01 T02710155  RH  050%=      5-min Rain = 0
KTUR 241620Z 18018G23KT 27/16 A298 RMK A01 T02690155  RH  051%=      5-min Rain = 0
KTUR 241625Z 19017KT 27/16 A298 RMK A01 T02720156  RH  050%=      5-min Rain = 0
KTUR 241630Z 18017G23KT 27/16 A298 RMK A01 T02740158  RH  050%=      5-min Rain = 0
KTUR 241635Z 18015G21KT 27/16 A298 RMK A01 T02730160  RH  051%=      5-min Rain = 0
KTUR 241640Z 18018G23KT 27/16 A298 RMK A01 T02740159  RH  051%=      5-min Rain = 0
KTUR 241645Z 17016G21KT 28/16 A298 RMK A01 T02750161  RH  051%=      5-min Rain = 0
KTUR 241650Z 17015G21KT 28/16 A298 RMK A01 T02780162  RH  050%=      5-min Rain = 0
KTUR 241655Z 17017G22KT 28/16 A298 RMK A01 T02790162  RH  050%=      5-min Rain = 0
KTUR 241700Z 17017G23KT 28/16 A298 RMK A01 T02810163  RH  050%=      5-min Rain = 0
KTUR 241705Z 17016G23KT 28/16 A298 RMK A01 T02810162  RH  050%=      5-min Rain = 0
KTUR 241710Z 17016G24KT 28/16 A298 RMK A01 T02840163  RH  049%=      5-min Rain = 0
KTUR 241715Z 17014G21KT 28/16 A298 RMK A01 T02830163  RH  049%=      5-min Rain = 0
KTUR 241720Z 18017G22KT 28/16 A298 RMK A01 T02840164  RH  049%=      5-min Rain = 0
KTUR 241725Z 18014G19KT 28/16 A298 RMK A01 T02830164  RH  050%=      5-min Rain = 0
KTUR 241730Z 18014G19KT 29/17 A298 RMK A01 T02860165  RH  049%=      5-min Rain = 0
KTUR 241735Z 17014G19KT 29/16 A298 RMK A01 T02850163  RH  049%=      5-min Rain = 0
KTUR 241740Z 16012G18KT 29/16 A298 RMK A01 T02890163  RH  048%=      5-min Rain = 0
KTUR 241745Z 17014G19KT 29/16 A298 RMK A01 T02890162  RH  047%=      5-min Rain = 0
KTUR 241750Z 18011G16KT 29/16 A298 RMK A01 T02890162  RH  047%=      5-min Rain = 0
KTUR 241755Z 17014KT 29/16 A298 RMK A01 T02890162  RH  047%=      5-min Rain = 0
KTUR 241800Z 17011G19KT 29/16 A298 RMK A01 T02900161  RH  047%=      5-min Rain = 0
KTUR 241805Z 18011KT 30/16 A298 RMK A01 T02960163  RH  046%=      5-min Rain = 0
KTUR 241810Z 17012G17KT 30/16 A298 RMK A01 T02960160  RH  045%=      5-min Rain = 0
KTUR 241815Z 16012KT 30/16 A2979 RMK A01 T02970161  RH  045%=      5-min Rain = 0
KTUR 241820Z 17010G17KT 29/16 A2979 RMK A01 T02930161  RH  046%=      5-min Rain = 0
KTUR 241825Z 17013G21KT 30/16 A2979 RMK A01 T02980161  RH  045%=      5-min Rain = 0
KTUR 241830Z 17012G17KT 30/16 A2979 RMK A01 T03010160  RH  043%=      5-min Rain = 0
KTUR 241835Z 18011KT 30/16 A2979 RMK A01 T03000158  RH  043%=      5-min Rain = 0
KTUR 241840Z 19009G14KT 30/16 A2978 RMK A01 T02950158  RH  044%=      5-min Rain = 0
KTUR 241845Z 19010KT 30/16 A2978 RMK A01 T02960159  RH  044%=      5-min Rain = 0
KTUR 241850Z 19013G19KT 30/16 A2978 RMK A01 T03020160  RH  043%=      5-min Rain = 0
KTUR 241855Z 19010G17KT 30/16 A2978 RMK A01 T03010159  RH  043%=      5-min Rain = 0
KTUR 241900Z 17009G15KT 30/16 A2978 RMK A01 T02990155  RH  043%=      5-min Rain = 0
KTUR 241905Z 16011G18KT 31/16 A2978 RMK A01 T03060159  RH  042%=      5-min Rain = 0
KTUR 241910Z 18011G16KT 31/16 A2978 RMK A01 T03050160  RH  042%=      5-min Rain = 0
KTUR 241915Z 18010G16KT 30/16 A2977 RMK A01 T03020158  RH  043%=      5-min Rain = 0
KTUR 241920Z 15010KT 30/16 A2977 RMK A01 T03040160  RH  043%=      5-min Rain = 0
KTUR 241925Z 20010G15KT 31/16 A2977 RMK A01 T03060158  RH  042%=      5-min Rain = 0
KTUR 241930Z 18010G15KT 31/16 A2977 RMK A01 T03060158  RH  042%=      5-min Rain = 0
KTUR 241935Z 17011KT 31/16 A2976 RMK A01 T03080156  RH  041%=      5-min Rain = 0
KTUR 241940Z 18010KT 31/16 A2976 RMK A01 T03070156  RH  041%=      5-min Rain = 0
KTUR 241945Z 15011G17KT 31/16 A2976 RMK A01 T03100159  RH  041%=      5-min Rain = 0
KTUR 241950Z 14011KT 31/16 A2975 RMK A01 T03070163  RH  043%=      5-min Rain = 0
KTUR 241955Z 17014G23KT 31/16 A2975 RMK A01 T03120161  RH  041%=      5-min Rain = 0
KTUR 242000Z 16009KT 31/16 A2975 RMK A01 T03110164  RH  042%=      5-min Rain = 0
KTUR 242005Z 16011G20KT 32/16 A2974 RMK A01 T03160164  RH  041%=      5-min Rain = 0
KTUR 242010Z 18012G18KT 32/16 A2974 RMK A01 T03170155  RH  039%=      5-min Rain = 0
KTUR 242015Z 18008G15KT 32/16 A2974 RMK A01 T03150162  RH  040%=      5-min Rain = 0
KTUR 242020Z 16012G17KT 32/16 A2974 RMK A01 T03150162  RH  041%=      5-min Rain = 0
KTUR 242025Z 16010KT 32/16 A2974 RMK A01 T03170158  RH  039%=      5-min Rain = 0
KTUR 242030Z 16012G17KT 32/16 A2973 RMK A01 T03180158  RH  039%=      5-min Rain = 0
KTUR 242035Z 14012G20KT 32/16 A2973 RMK A01 T03220160  RH  039%=      5-min Rain = 0
KTUR 242040Z 14013KT 32/16 A2973 RMK A01 T03230157  RH  038%=      5-min Rain = 0
KTUR 242045Z 16013G19KT 32/16 A2973 RMK A01 T03210157  RH  038%=      5-min Rain = 0
KTUR 242050Z 17009G14KT 32/15 A2972 RMK A01 T03190154  RH  038%=      5-min Rain = 0
KTUR 242055Z 13011G20KT 32/16 A2972 RMK A01 T03220155  RH  038%=      5-min Rain = 0
KTUR 242100Z 14010G15KT 32/16 A2972 RMK A01 T03180156  RH  038%=      5-min Rain = 0
KTUR 242105Z 13011KT 32/16 A2971 RMK A01 T03210157  RH  038%=      5-min Rain = 0
KTUR 242110Z 16012KT 32/16 A2971 RMK A01 T03240157  RH  037%=      5-min Rain = 0
KTUR 242115Z 18010KT 32/16 A2971 RMK A01 T03190158  RH  039%=      5-min Rain = 0
KTUR 242120Z 17013G20KT 32/16 A2971 RMK A01 T03190158  RH  039%=      5-min Rain = 0
KTUR 242125Z 16013G18KT 32/16 A297 RMK A01 T03210161  RH  039%=      5-min Rain = 0
KTUR 242130Z 14013G19KT 32/16 A297 RMK A01 T03190160  RH  039%=      5-min Rain = 0
KTUR 242135Z 12014G19KT 32/16 A297 RMK A01 T03150161  RH  040%=      5-min Rain = 0
KTUR 242140Z 13013G20KT 32/16 A297 RMK A01 T03190162  RH  040%=      5-min Rain = 0
KTUR 242145Z 13013G19KT 32/16 A2969 RMK A01 T03220163  RH  039%=      5-min Rain = 0
KTUR 242150Z 16011KT 32/16 A2969 RMK A01 T03210158  RH  038%=      5-min Rain = 0
KTUR 242155Z 14011G16KT 32/16 A2969 RMK A01 T03200159  RH  039%=      5-min Rain = 0
KTUR 242200Z 15012G17KT 32/16 A2968 RMK A01 T03240162  RH  039%=      5-min Rain = 0
KTUR 242205Z 12013KT 32/16 A2968 RMK A01 T03200161  RH  039%=      5-min Rain = 0
KTUR 242210Z 12014KT 32/16 A2967 RMK A01 T03200160  RH  039%=      5-min Rain = 0
KTUR 242215Z 13013KT 32/16 A2967 RMK A01 T03210161  RH  039%=      5-min Rain = 0
KTUR 242220Z 14013KT 32/16 A2967 RMK A01 T03200161  RH  039%=      5-min Rain = 0
KTUR 242225Z 13012G18KT 32/16 A2967 RMK A01 T03180159  RH  039%=      5-min Rain = 0
KTUR 242230Z 13013KT 32/16 A2967 RMK A01 T03190158  RH  039%=      5-min Rain = 0
KTUR 242235Z 13012KT 32/15 A2967 RMK A01 T03190153  RH  038%=      5-min Rain = 0
KTUR 242240Z 12013KT 32/16 A2967 RMK A01 T03170156  RH  039%=      5-min Rain = 0
KTUR 242245Z 12011G16KT 32/16 A2966 RMK A01 T03170155  RH  038%=      5-min Rain = 0
KTUR 242250Z 12013G18KT 32/16 A2966 RMK A01 T03180159  RH  039%=      5-min Rain = 0
KTUR 242255Z 13013KT 32/17 A2965 RMK A01 T03190165  RH  041%=      5-min Rain = 0
KTUR 242300Z 12014KT 32/16 A2965 RMK A01 T03190164  RH  040%=      5-min Rain = 0
KTUR 242305Z 11014G19KT 32/16 A2965 RMK A01 T03190164  RH  040%=      5-min Rain = 0
KTUR 242310Z 12015KT 32/16 A2965 RMK A01 T03160160  RH  040%=      5-min Rain = 0
KTUR 242315Z 12013KT 32/16 A2965 RMK A01 T03160156  RH  039%=      5-min Rain = 0
KTUR 242320Z 14014KT 32/16 A2965 RMK A01 T03160158  RH  040%=      5-min Rain = 0
KTUR 242325Z 13013KT 32/16 A2965 RMK A01 T03160158  RH  039%=      5-min Rain = 0
KTUR 242330Z 14014KT 31/16 A2965 RMK A01 T03120156  RH  040%=      5-min Rain = 0
KTUR 242335Z 14013KT 31/16 A2965 RMK A01 T03080156  RH  041%=      5-min Rain = 0
KTUR 242340Z 13013G18KT 31/16 A2965 RMK A01 T03080160  RH  042%=      5-min Rain = 0
KTUR 242345Z 13015KT 31/16 A2965 RMK A01 T03070159  RH  042%=      5-min Rain = 0
KTUR 242350Z 12015KT 31/16 A2964 RMK A01 T03060159  RH  042%=      5-min Rain = 0
KTUR 242355Z 13016G21KT 31/16 A2964 RMK A01 T03050158  RH  042%=      5-min Rain = 0
KTUR 250000Z 13015KT 30/16 A2964 RMK A01 T03030162  RH  043%=      5-min Rain = 0
KTUR 250005Z 13016KT 30/16 A2964 RMK A01 T03020161  RH  043%=      5-min Rain = 0
KTUR 250010Z 13015G20KT 30/16 A2964 RMK A01 T03010163  RH  044%=      5-min Rain = 0
KTUR 250015Z 12014KT 30/16 A2964 RMK A01 T02990164  RH  045%=      5-min Rain = 0
KTUR 250020Z 12015KT 30/16 A2963 RMK A01 T02970162  RH  045%=      5-min Rain = 0
KTUR 250025Z 12015KT 30/16 A2963 RMK A01 T02960159  RH  045%=      5-min Rain = 0
KTUR 250030Z 12013KT 30/16 A2964 RMK A01 T02960157  RH  044%=      5-min Rain = 0
KTUR 250035Z 12012KT 29/16 A2964 RMK A01 T02940158  RH  045%=      5-min Rain = 0
KTUR 250040Z 11011KT 29/16 A2964 RMK A01 T02910161  RH  046%=      5-min Rain = 0
KTUR 250045Z 11014KT 29/17 A2963 RMK A01 T02890169  RH  050%=      5-min Rain = 0
KTUR 250050Z 11016KT 29/17 A2964 RMK A01 T02870174  RH  052%=      5-min Rain = 0
KTUR 250055Z 11016KT 29/18 A2963 RMK A01 T02860175  RH  052%=      5-min Rain = 0
KTUR 250100Z 11016KT 29/18 A2962 RMK A01 T02850175  RH  053%=      5-min Rain = 0
KTUR 250105Z 11017KT 28/18 A2961 RMK A01 T02840175  RH  053%=      5-min Rain = 0
KTUR 250110Z 14021G30KT 28/16 A2964 RMK A01 T02830158  RH  048%=      5-min Rain = 0
KTUR 250115Z 18031G42KT 26/08 A2965 RMK A01 T02630078  RH  032%=      5-min Rain = 0
KTUR 250120Z 21031G41KT 24/09 A2965 RMK A01 T02360094  RH  041%=      5-min Rain = 0
KTUR 250125Z 22027G34KT 21/12 A2965 RMK A01 T02120120  RH  057%=      5-min Rain = 0
KTUR 250130Z 24024G37KT 18/14 A2966 RMK A01 T01840138  RH  076%=      5-min Rain = 0.03
KTUR 250135Z 23024G33KT 18/14 A2967 RMK A01 T01830136  RH  076%=      5-min Rain = 0.02
KTUR 250140Z 23019G24KT 18/14 A2968 RMK A01 T01840138  RH  076%=      5-min Rain = 0
KTUR 250145Z 21017G22KT 19/14 A297 RMK A01 T01860137  RH  075%=      5-min Rain = 0.01
KTUR 250150Z 21012G18KT 18/14 A2971 RMK A01 T01840142  RH  078%=      5-min Rain = 0
KTUR 250155Z 20009KT 18/15 A2971 RMK A01 T01830147  RH  081%=      5-min Rain = 0
KTUR 250200Z 18009KT 19/15 A2973 RMK A01 T01850150  RH  082%=      5-min Rain = 0
KTUR 250205Z 17011KT 19/15 A2974 RMK A01 T01880148  RH  079%=      5-min Rain = 0
KTUR 250210Z 18010KT 19/15 A2974 RMK A01 T01880146  RH  079%=      5-min Rain = 0
KTUR 250215Z 20009KT 19/14 A2973 RMK A01 T01890144  RH  077%=      5-min Rain = 0
KTUR 250220Z 22009KT 19/15 A2972 RMK A01 T01890146  RH  078%=      5-min Rain = 0
KTUR 250225Z 27009KT 19/15 A2973 RMK A01 T01890149  RH  079%=      5-min Rain = 0.01
KTUR 250230Z 29009G22KT 19/14 A2976 RMK A01 T01860144  RH  078%=      5-min Rain = 0.01
KTUR 250235Z 26014G20KT 19/13 A2978 RMK A01 T01940133  RH  069%=      5-min Rain = 0.01
KTUR 250240Z 28010G16KT 19/14 A2979 RMK A01 T01890139  RH  074%=      5-min Rain = 0.02
KTUR 250245Z 33010KT 18/15 A298 RMK A01 T01810145  RH  081%=      5-min Rain = 0.03
KTUR 250250Z 34015KT 18/15 A2979 RMK A01 T01780148  RH  084%=      5-min Rain = 0.02
KTUR 250255Z 36018G26KT 17/15 A2976 RMK A01 T01740150  RH  088%=      5-min Rain = 0.02
KTUR 250300Z 36027G32KT 17/15 A2971 RMK A01 T01740151  RH  088%=      5-min Rain = 0.02
KTUR 250305Z 35022G29KT 18/15 A2973 RMK A01 T01760145  RH  084%=      5-min Rain = 0
KTUR 250310Z 00023G28KT 18/14 A2971 RMK A01 T01790141  RH  080%=      5-min Rain = 0
KTUR 250315Z 02022G27KT 18/14 A2971 RMK A01 T01760142  RH  082%=      5-min Rain = 0
KTUR 250320Z 03022G30KT 18/14 A2971 RMK A01 T01750139  RH  081%=      5-min Rain = 0
KTUR 250325Z 05019G26KT 18/14 A2972 RMK A01 T01810135  RH  076%=      5-min Rain = 0
KTUR 250330Z 10022G30KT 18/14 A2974 RMK A01 T01770144  RH  083%=      5-min Rain = 0
KTUR 250335Z 08024G32KT 18/14 A2974 RMK A01 T01760143  RH  083%=      5-min Rain = 0
KTUR 250340Z 06023KT 18/14 A2974 RMK A01 T01800135  RH  076%=      5-min Rain = 0
KTUR 250345Z 08019G25KT 18/14 A2975 RMK A01 T01780139  RH  080%=      5-min Rain = 0
KTUR 250350Z 09020G26KT 17/15 A2975 RMK A01 T01680147  RH  089%=      5-min Rain = 0
KTUR 250355Z 10017G23KT 17/14 A2976 RMK A01 T01710144  RH  086%=      5-min Rain = 0
KTUR 250400Z 11023G31KT 17/15 A2975 RMK A01 T01660146  RH  090%=      5-min Rain = 0
KTUR 250405Z 09025G32KT 17/14 A2975 RMK A01 T01660143  RH  088%=      5-min Rain = 0
KTUR 250410Z 07027G33KT 17/14 A2973 RMK A01 T01670142  RH  087%=      5-min Rain = 0
KTUR 250415Z 07026KT 17/14 A2973 RMK A01 T01680140  RH  085%=      5-min Rain = 0
KTUR 250420Z 09021G29KT 17/14 A2976 RMK A01 T01730136  RH  080%=      5-min Rain = 0
KTUR 250425Z 12018G24KT 17/14 A2977 RMK A01 T01700141  RH  085%=      5-min Rain = 0
KTUR 250430Z 14019G25KT 17/14 A2978 RMK A01 T01680140  RH  085%=      5-min Rain = 0
KTUR 250435Z 12018G24KT 17/14 A2977 RMK A01 T01660141  RH  087%=      5-min Rain = 0.01
KTUR 250440Z 08026G38KT 17/14 A2974 RMK A01 T01650141  RH  088%=      5-min Rain = 0
KTUR 250445Z 06035G46KT 16/14 A2971 RMK A01 T01620140  RH  088%=      5-min Rain = 0
KTUR 250450Z 05039G49KT 16/14 A2967 RMK A01 T01580141  RH  091%=      5-min Rain = 0
KTUR 250455Z 06042G56KT 16/14 A2965 RMK A01 T01560141  RH  093%=      5-min Rain = 0

Page generated in 0.0476 seconds.